sensor_id;sensor_type;location;lat;lon;timestamp;P1;durP1;ratioP1;P2;durP2;ratioP2
21903;SDS011;11116;51.554;7.812;2022-10-16T00:00:29;6.25;;;2.35;;
21903;SDS011;11116;51.554;7.812;2022-10-16T00:02:57;7.93;;;2.35;;
21903;SDS011;11116;51.554;7.812;2022-10-16T00:05:24;4.03;;;2.13;;
21903;SDS011;11116;51.554;7.812;2022-10-16T00:07:51;5.20;;;2.33;;
21903;SDS011;11116;51.554;7.812;2022-10-16T00:10:17;3.55;;;2.63;;
21903;SDS011;11116;51.554;7.812;2022-10-16T00:12:44;7.30;;;2.35;;
21903;SDS011;11116;51.554;7.812;2022-10-16T00:15:11;3.42;;;2.13;;
21903;SDS011;11116;51.554;7.812;2022-10-16T00:17:38;2.28;;;2.05;;
21903;SDS011;11116;51.554;7.812;2022-10-16T00:20:06;5.18;;;1.75;;
21903;SDS011;11116;51.554;7.812;2022-10-16T00:22:34;3.17;;;2.28;;
21903;SDS011;11116;51.554;7.812;2022-10-16T00:25:00;5.43;;;1.98;;
21903;SDS011;11116;51.554;7.812;2022-10-16T00:27:27;3.65;;;1.95;;
21903;SDS011;11116;51.554;7.812;2022-10-16T00:29:54;3.90;;;2.42;;
21903;SDS011;11116;51.554;7.812;2022-10-16T00:32:20;2.88;;;2.05;;
21903;SDS011;11116;51.554;7.812;2022-10-16T00:34:47;3.80;;;1.73;;
21903;SDS011;11116;51.554;7.812;2022-10-16T00:37:15;8.05;;;2.03;;
21903;SDS011;11116;51.554;7.812;2022-10-16T00:39:42;3.88;;;2.03;;
21903;SDS011;11116;51.554;7.812;2022-10-16T00:42:09;3.35;;;2.00;;
21903;SDS011;11116;51.554;7.812;2022-10-16T00:44:45;2.72;;;1.60;;
21903;SDS011;11116;51.554;7.812;2022-10-16T00:47:19;2.70;;;1.60;;
21903;SDS011;11116;51.554;7.812;2022-10-16T00:49:49;3.92;;;1.70;;
21903;SDS011;11116;51.554;7.812;2022-10-16T00:52:19;4.05;;;2.15;;
21903;SDS011;11116;51.554;7.812;2022-10-16T00:54:46;4.90;;;1.85;;
21903;SDS011;11116;51.554;7.812;2022-10-16T00:57:13;2.17;;;1.80;;
21903;SDS011;11116;51.554;7.812;2022-10-16T00:59:40;2.83;;;1.75;;
21903;SDS011;11116;51.554;7.812;2022-10-16T01:02:10;2.95;;;1.73;;
21903;SDS011;11116;51.554;7.812;2022-10-16T01:04:39;2.92;;;1.50;;
21903;SDS011;11116;51.554;7.812;2022-10-16T01:07:10;6.63;;;1.75;;
21903;SDS011;11116;51.554;7.812;2022-10-16T01:09:43;4.20;;;2.25;;
21903;SDS011;11116;51.554;7.812;2022-10-16T01:12:19;2.63;;;1.33;;
21903;SDS011;11116;51.554;7.812;2022-10-16T01:14:56;4.22;;;1.50;;
21903;SDS011;11116;51.554;7.812;2022-10-16T01:17:28;1.63;;;1.30;;
21903;SDS011;11116;51.554;7.812;2022-10-16T01:20:04;3.17;;;1.52;;
21903;SDS011;11116;51.554;7.812;2022-10-16T01:22:38;2.28;;;1.55;;
21903;SDS011;11116;51.554;7.812;2022-10-16T01:25:16;1.50;;;1.40;;
21903;SDS011;11116;51.554;7.812;2022-10-16T01:27:51;1.67;;;1.40;;
21903;SDS011;11116;51.554;7.812;2022-10-16T01:30:21;4.88;;;1.80;;
21903;SDS011;11116;51.554;7.812;2022-10-16T01:32:52;3.72;;;1.20;;
21903;SDS011;11116;51.554;7.812;2022-10-16T01:35:25;2.03;;;1.63;;
21903;SDS011;11116;51.554;7.812;2022-10-16T01:37:56;2.80;;;1.58;;
21903;SDS011;11116;51.554;7.812;2022-10-16T01:40:29;6.00;;;1.88;;
21903;SDS011;11116;51.554;7.812;2022-10-16T01:43:00;4.70;;;2.00;;
21903;SDS011;11116;51.554;7.812;2022-10-16T01:45:31;3.03;;;1.52;;
21903;SDS011;11116;51.554;7.812;2022-10-16T01:47:59;1.83;;;1.27;;
21903;SDS011;11116;51.554;7.812;2022-10-16T01:50:31;3.05;;;1.65;;
21903;SDS011;11116;51.554;7.812;2022-10-16T01:53:02;4.45;;;1.50;;
21903;SDS011;11116;51.554;7.812;2022-10-16T01:55:31;2.17;;;1.42;;
21903;SDS011;11116;51.554;7.812;2022-10-16T01:58:02;1.90;;;1.65;;
21903;SDS011;11116;51.554;7.812;2022-10-16T02:00:31;2.75;;;1.65;;
21903;SDS011;11116;51.554;7.812;2022-10-16T02:02:58;3.22;;;1.65;;
21903;SDS011;11116;51.554;7.812;2022-10-16T02:05:28;2.75;;;1.55;;
21903;SDS011;11116;51.554;7.812;2022-10-16T02:07:59;2.97;;;1.23;;
21903;SDS011;11116;51.554;7.812;2022-10-16T02:10:26;2.80;;;1.50;;
21903;SDS011;11116;51.554;7.812;2022-10-16T02:12:56;3.20;;;1.25;;
21903;SDS011;11116;51.554;7.812;2022-10-16T02:15:28;6.13;;;2.05;;
21903;SDS011;11116;51.554;7.812;2022-10-16T02:17:54;1.42;;;1.33;;
21903;SDS011;11116;51.554;7.812;2022-10-16T02:20:23;1.63;;;1.45;;
21903;SDS011;11116;51.554;7.812;2022-10-16T02:22:53;5.22;;;1.48;;
21903;SDS011;11116;51.554;7.812;2022-10-16T02:25:24;3.22;;;1.45;;
21903;SDS011;11116;51.554;7.812;2022-10-16T02:27:54;1.30;;;1.20;;
21903;SDS011;11116;51.554;7.812;2022-10-16T02:30:29;5.78;;;1.40;;
21903;SDS011;11116;51.554;7.812;2022-10-16T02:32:59;3.35;;;1.60;;
21903;SDS011;11116;51.554;7.812;2022-10-16T02:35:29;3.50;;;1.40;;
21903;SDS011;11116;51.554;7.812;2022-10-16T02:37:57;6.18;;;1.33;;
21903;SDS011;11116;51.554;7.812;2022-10-16T02:40:25;3.35;;;1.30;;
21903;SDS011;11116;51.554;7.812;2022-10-16T02:42:53;4.85;;;1.38;;
21903;SDS011;11116;51.554;7.812;2022-10-16T02:45:21;3.92;;;1.30;;
21903;SDS011;11116;51.554;7.812;2022-10-16T02:47:49;2.25;;;1.55;;
21903;SDS011;11116;51.554;7.812;2022-10-16T02:50:16;1.55;;;1.30;;
21903;SDS011;11116;51.554;7.812;2022-10-16T02:52:43;3.10;;;1.50;;
21903;SDS011;11116;51.554;7.812;2022-10-16T02:55:09;2.08;;;1.27;;
21903;SDS011;11116;51.554;7.812;2022-10-16T02:57:36;2.45;;;1.20;;
21903;SDS011;11116;51.554;7.812;2022-10-16T03:00:05;1.73;;;1.45;;
21903;SDS011;11116;51.554;7.812;2022-10-16T03:02:33;1.10;;;1.00;;
21903;SDS011;11116;51.554;7.812;2022-10-16T03:05:01;1.67;;;1.58;;
21903;SDS011;11116;51.554;7.812;2022-10-16T03:07:27;1.20;;;1.20;;
21903;SDS011;11116;51.554;7.812;2022-10-16T03:09:54;1.92;;;1.30;;
21903;SDS011;11116;51.554;7.812;2022-10-16T03:12:21;1.00;;;1.00;;
21903;SDS011;11116;51.554;7.812;2022-10-16T03:14:48;1.75;;;1.40;;
21903;SDS011;11116;51.554;7.812;2022-10-16T03:17:15;1.77;;;1.27;;
21903;SDS011;11116;51.554;7.812;2022-10-16T03:19:42;2.08;;;1.45;;
21903;SDS011;11116;51.554;7.812;2022-10-16T03:22:10;1.95;;;1.15;;
21903;SDS011;11116;51.554;7.812;2022-10-16T03:24:37;2.45;;;1.30;;
21903;SDS011;11116;51.554;7.812;2022-10-16T03:27:03;1.60;;;1.50;;
21903;SDS011;11116;51.554;7.812;2022-10-16T03:29:30;3.53;;;1.40;;
21903;SDS011;11116;51.554;7.812;2022-10-16T03:31:58;1.55;;;1.30;;
21903;SDS011;11116;51.554;7.812;2022-10-16T03:34:25;2.83;;;1.70;;
21903;SDS011;11116;51.554;7.812;2022-10-16T03:36:51;2.95;;;1.05;;
21903;SDS011;11116;51.554;7.812;2022-10-16T03:39:19;1.35;;;1.13;;
21903;SDS011;11116;51.554;7.812;2022-10-16T03:41:46;2.35;;;1.10;;
21903;SDS011;11116;51.554;7.812;2022-10-16T03:44:13;1.10;;;1.08;;
21903;SDS011;11116;51.554;7.812;2022-10-16T03:46:40;1.23;;;1.13;;
21903;SDS011;11116;51.554;7.812;2022-10-16T03:49:06;1.13;;;1.08;;
21903;SDS011;11116;51.554;7.812;2022-10-16T03:51:33;4.15;;;1.40;;
21903;SDS011;11116;51.554;7.812;2022-10-16T03:54:00;0.95;;;0.90;;
21903;SDS011;11116;51.554;7.812;2022-10-16T03:56:28;1.25;;;1.15;;
21903;SDS011;11116;51.554;7.812;2022-10-16T03:58:55;1.35;;;1.25;;
21903;SDS011;11116;51.554;7.812;2022-10-16T04:01:21;4.65;;;1.35;;
21903;SDS011;11116;51.554;7.812;2022-10-16T04:03:48;2.70;;;1.00;;
21903;SDS011;11116;51.554;7.812;2022-10-16T04:06:15;1.20;;;1.10;;
21903;SDS011;11116;51.554;7.812;2022-10-16T04:08:42;2.88;;;1.38;;
21903;SDS011;11116;51.554;7.812;2022-10-16T04:11:09;3.70;;;1.40;;
21903;SDS011;11116;51.554;7.812;2022-10-16T04:13:37;2.00;;;1.05;;
21903;SDS011;11116;51.554;7.812;2022-10-16T04:16:03;2.13;;;0.80;;
21903;SDS011;11116;51.554;7.812;2022-10-16T04:18:30;1.60;;;1.00;;
21903;SDS011;11116;51.554;7.812;2022-10-16T04:21:01;1.17;;;0.80;;
21903;SDS011;11116;51.554;7.812;2022-10-16T04:23:28;3.88;;;1.25;;
21903;SDS011;11116;51.554;7.812;2022-10-16T04:25:55;1.58;;;0.82;;
21903;SDS011;11116;51.554;7.812;2022-10-16T04:28:22;3.00;;;1.10;;
21903;SDS011;11116;51.554;7.812;2022-10-16T04:30:50;3.35;;;0.98;;
21903;SDS011;11116;51.554;7.812;2022-10-16T04:33:16;0.90;;;0.90;;
21903;SDS011;11116;51.554;7.812;2022-10-16T04:35:43;2.15;;;0.90;;
21903;SDS011;11116;51.554;7.812;2022-10-16T04:38:12;2.17;;;1.15;;
21903;SDS011;11116;51.554;7.812;2022-10-16T04:40:38;0.90;;;0.90;;
21903;SDS011;11116;51.554;7.812;2022-10-16T04:43:06;1.58;;;0.90;;
21903;SDS011;11116;51.554;7.812;2022-10-16T04:45:32;2.67;;;1.33;;
21903;SDS011;11116;51.554;7.812;2022-10-16T04:48:00;2.05;;;1.75;;
21903;SDS011;11116;51.554;7.812;2022-10-16T04:50:27;2.35;;;0.80;;
21903;SDS011;11116;51.554;7.812;2022-10-16T04:53:04;1.27;;;0.82;;
21903;SDS011;11116;51.554;7.812;2022-10-16T04:55:31;0.70;;;0.70;;
21903;SDS011;11116;51.554;7.812;2022-10-16T04:57:57;1.23;;;0.70;;
21903;SDS011;11116;51.554;7.812;2022-10-16T05:00:24;1.85;;;1.10;;
21903;SDS011;11116;51.554;7.812;2022-10-16T05:02:51;3.47;;;0.85;;
21903;SDS011;11116;51.554;7.812;2022-10-16T05:05:19;2.15;;;0.90;;
21903;SDS011;11116;51.554;7.812;2022-10-16T05:07:45;1.08;;;1.02;;
21903;SDS011;11116;51.554;7.812;2022-10-16T05:10:12;2.30;;;0.80;;
21903;SDS011;11116;51.554;7.812;2022-10-16T05:12:39;2.15;;;0.90;;
21903;SDS011;11116;51.554;7.812;2022-10-16T05:15:06;0.88;;;0.80;;
21903;SDS011;11116;51.554;7.812;2022-10-16T05:17:34;3.03;;;0.80;;
21903;SDS011;11116;51.554;7.812;2022-10-16T05:20:00;2.95;;;0.82;;
21903;SDS011;11116;51.554;7.812;2022-10-16T05:22:28;1.67;;;0.77;;
21903;SDS011;11116;51.554;7.812;2022-10-16T05:24:55;2.08;;;0.90;;
21903;SDS011;11116;51.554;7.812;2022-10-16T05:27:22;3.10;;;1.00;;
21903;SDS011;11116;51.554;7.812;2022-10-16T05:29:48;2.95;;;0.95;;
21903;SDS011;11116;51.554;7.812;2022-10-16T05:32:15;1.67;;;0.80;;
21903;SDS011;11116;51.554;7.812;2022-10-16T05:34:44;0.80;;;0.80;;
21903;SDS011;11116;51.554;7.812;2022-10-16T05:37:11;3.00;;;0.82;;
21903;SDS011;11116;51.554;7.812;2022-10-16T05:39:40;0.80;;;0.68;;
21903;SDS011;11116;51.554;7.812;2022-10-16T05:42:06;0.70;;;0.70;;
21903;SDS011;11116;51.554;7.812;2022-10-16T05:44:33;0.90;;;0.90;;
21903;SDS011;11116;51.554;7.812;2022-10-16T05:47:00;3.30;;;0.80;;
21903;SDS011;11116;51.554;7.812;2022-10-16T05:49:27;3.65;;;0.90;;
21903;SDS011;11116;51.554;7.812;2022-10-16T05:51:53;3.33;;;1.45;;
21903;SDS011;11116;51.554;7.812;2022-10-16T05:54:20;1.48;;;1.08;;
21903;SDS011;11116;51.554;7.812;2022-10-16T05:56:48;1.55;;;0.90;;
21903;SDS011;11116;51.554;7.812;2022-10-16T05:59:15;3.47;;;0.98;;
21903;SDS011;11116;51.554;7.812;2022-10-16T06:01:41;1.42;;;0.90;;
21903;SDS011;11116;51.554;7.812;2022-10-16T06:04:08;0.95;;;0.90;;
21903;SDS011;11116;51.554;7.812;2022-10-16T06:06:35;0.85;;;0.85;;
21903;SDS011;11116;51.554;7.812;2022-10-16T06:09:02;3.55;;;0.82;;
21903;SDS011;11116;51.554;7.812;2022-10-16T06:11:30;2.72;;;1.00;;
21903;SDS011;11116;51.554;7.812;2022-10-16T06:13:59;1.83;;;0.90;;
21903;SDS011;11116;51.554;7.812;2022-10-16T06:16:31;1.40;;;0.80;;
21903;SDS011;11116;51.554;7.812;2022-10-16T06:18:59;6.18;;;1.08;;
21903;SDS011;11116;51.554;7.812;2022-10-16T06:21:26;0.73;;;0.73;;
21903;SDS011;11116;51.554;7.812;2022-10-16T06:23:55;3.95;;;1.30;;
21903;SDS011;11116;51.554;7.812;2022-10-16T06:26:23;0.90;;;0.90;;
21903;SDS011;11116;51.554;7.812;2022-10-16T06:28:53;1.20;;;1.10;;
21903;SDS011;11116;51.554;7.812;2022-10-16T06:31:22;2.28;;;1.13;;
21903;SDS011;11116;51.554;7.812;2022-10-16T06:33:52;0.80;;;0.80;;
21903;SDS011;11116;51.554;7.812;2022-10-16T06:36:20;0.70;;;0.70;;
21903;SDS011;11116;51.554;7.812;2022-10-16T06:38:47;1.20;;;1.02;;
21903;SDS011;11116;51.554;7.812;2022-10-16T06:41:14;0.95;;;0.90;;
21903;SDS011;11116;51.554;7.812;2022-10-16T06:43:41;1.85;;;1.00;;
21903;SDS011;11116;51.554;7.812;2022-10-16T06:46:10;1.38;;;1.00;;
21903;SDS011;11116;51.554;7.812;2022-10-16T06:48:39;1.40;;;0.93;;
21903;SDS011;11116;51.554;7.812;2022-10-16T06:51:07;1.25;;;0.88;;
21903;SDS011;11116;51.554;7.812;2022-10-16T06:53:37;2.38;;;0.90;;
21903;SDS011;11116;51.554;7.812;2022-10-16T06:56:08;1.95;;;1.10;;
21903;SDS011;11116;51.554;7.812;2022-10-16T06:58:36;1.35;;;1.20;;
21903;SDS011;11116;51.554;7.812;2022-10-16T07:01:03;1.13;;;1.02;;
21903;SDS011;11116;51.554;7.812;2022-10-16T07:03:35;2.15;;;1.02;;
21903;SDS011;11116;51.554;7.812;2022-10-16T07:06:04;3.30;;;1.10;;
21903;SDS011;11116;51.554;7.812;2022-10-16T07:08:32;1.20;;;1.00;;
21903;SDS011;11116;51.554;7.812;2022-10-16T07:10:59;1.10;;;1.02;;
21903;SDS011;11116;51.554;7.812;2022-10-16T07:13:27;1.70;;;1.15;;
21903;SDS011;11116;51.554;7.812;2022-10-16T07:15:53;1.60;;;0.95;;
21903;SDS011;11116;51.554;7.812;2022-10-16T07:18:20;2.85;;;1.00;;
21903;SDS011;11116;51.554;7.812;2022-10-16T07:20:51;1.05;;;0.80;;
21903;SDS011;11116;51.554;7.812;2022-10-16T07:23:19;1.48;;;1.00;;
21903;SDS011;11116;51.554;7.812;2022-10-16T07:25:46;1.30;;;1.23;;
21903;SDS011;11116;51.554;7.812;2022-10-16T07:28:19;1.83;;;0.80;;
21903;SDS011;11116;51.554;7.812;2022-10-16T07:30:46;3.55;;;1.00;;
21903;SDS011;11116;51.554;7.812;2022-10-16T07:33:13;0.95;;;0.95;;
21903;SDS011;11116;51.554;7.812;2022-10-16T07:35:46;2.25;;;1.17;;
21903;SDS011;11116;51.554;7.812;2022-10-16T07:38:13;3.25;;;0.85;;
21903;SDS011;11116;51.554;7.812;2022-10-16T07:40:42;1.08;;;0.98;;
21903;SDS011;11116;51.554;7.812;2022-10-16T07:43:08;1.30;;;1.20;;
21903;SDS011;11116;51.554;7.812;2022-10-16T07:45:35;2.05;;;0.93;;
21903;SDS011;11116;51.554;7.812;2022-10-16T07:48:02;2.47;;;1.10;;
21903;SDS011;11116;51.554;7.812;2022-10-16T07:50:29;1.45;;;0.90;;
21903;SDS011;11116;51.554;7.812;2022-10-16T07:52:56;1.45;;;0.80;;
21903;SDS011;11116;51.554;7.812;2022-10-16T07:55:23;1.90;;;0.82;;
21903;SDS011;11116;51.554;7.812;2022-10-16T07:57:51;1.63;;;0.95;;
21903;SDS011;11116;51.554;7.812;2022-10-16T08:00:17;0.93;;;0.93;;
21903;SDS011;11116;51.554;7.812;2022-10-16T08:02:44;0.98;;;0.90;;
21903;SDS011;11116;51.554;7.812;2022-10-16T08:05:11;2.13;;;1.25;;
21903;SDS011;11116;51.554;7.812;2022-10-16T08:07:37;0.95;;;0.95;;
21903;SDS011;11116;51.554;7.812;2022-10-16T08:10:05;2.35;;;1.25;;
21903;SDS011;11116;51.554;7.812;2022-10-16T08:12:32;1.48;;;0.93;;
21903;SDS011;11116;51.554;7.812;2022-10-16T08:15:00;2.88;;;0.90;;
21903;SDS011;11116;51.554;7.812;2022-10-16T08:17:26;3.10;;;1.13;;
21903;SDS011;11116;51.554;7.812;2022-10-16T08:19:53;2.80;;;1.10;;
21903;SDS011;11116;51.554;7.812;2022-10-16T08:22:20;1.30;;;1.20;;
21903;SDS011;11116;51.554;7.812;2022-10-16T08:24:46;1.67;;;1.10;;
21903;SDS011;11116;51.554;7.812;2022-10-16T08:27:13;2.10;;;1.77;;
21903;SDS011;11116;51.554;7.812;2022-10-16T08:29:40;3.50;;;1.38;;
21903;SDS011;11116;51.554;7.812;2022-10-16T08:32:08;1.73;;;1.17;;
21903;SDS011;11116;51.554;7.812;2022-10-16T08:34:34;1.30;;;1.20;;
21903;SDS011;11116;51.554;7.812;2022-10-16T08:37:01;3.53;;;1.20;;
21903;SDS011;11116;51.554;7.812;2022-10-16T08:39:28;1.13;;;1.10;;
21903;SDS011;11116;51.554;7.812;2022-10-16T08:42:04;1.63;;;1.10;;
21903;SDS011;11116;51.554;7.812;2022-10-16T08:44:54;1.23;;;1.10;;
21903;SDS011;11116;51.554;7.812;2022-10-16T08:47:33;1.33;;;1.20;;
21903;SDS011;11116;51.554;7.812;2022-10-16T08:50:10;1.58;;;1.10;;
21903;SDS011;11116;51.554;7.812;2022-10-16T08:52:39;9.02;;;1.33;;
21903;SDS011;11116;51.554;7.812;2022-10-16T08:55:08;1.30;;;1.20;;
21903;SDS011;11116;51.554;7.812;2022-10-16T08:57:47;2.75;;;1.10;;
21903;SDS011;11116;51.554;7.812;2022-10-16T09:00:14;2.45;;;0.93;;
21903;SDS011;11116;51.554;7.812;2022-10-16T09:02:45;1.10;;;1.00;;
21903;SDS011;11116;51.554;7.812;2022-10-16T09:05:29;2.58;;;1.13;;
21903;SDS011;11116;51.554;7.812;2022-10-16T09:08:13;4.32;;;1.02;;
21903;SDS011;11116;51.554;7.812;2022-10-16T09:10:50;4.20;;;1.42;;
21903;SDS011;11116;51.554;7.812;2022-10-16T09:13:26;3.20;;;1.15;;
21903;SDS011;11116;51.554;7.812;2022-10-16T09:16:10;2.95;;;0.82;;
21903;SDS011;11116;51.554;7.812;2022-10-16T09:18:45;5.85;;;1.20;;
21903;SDS011;11116;51.554;7.812;2022-10-16T09:21:18;2.88;;;1.10;;
21903;SDS011;11116;51.554;7.812;2022-10-16T09:23:49;3.65;;;1.33;;
21903;SDS011;11116;51.554;7.812;2022-10-16T09:26:16;4.35;;;0.82;;
21903;SDS011;11116;51.554;7.812;2022-10-16T09:28:44;1.08;;;0.82;;
21903;SDS011;11116;51.554;7.812;2022-10-16T09:31:21;2.05;;;0.75;;
21903;SDS011;11116;51.554;7.812;2022-10-16T09:33:51;3.03;;;0.82;;
21903;SDS011;11116;51.554;7.812;2022-10-16T09:36:20;3.70;;;1.80;;
21903;SDS011;11116;51.554;7.812;2022-10-16T09:38:49;5.32;;;0.98;;
21903;SDS011;11116;51.554;7.812;2022-10-16T09:41:19;2.33;;;1.00;;
21903;SDS011;11116;51.554;7.812;2022-10-16T09:43:52;4.70;;;1.65;;
21903;SDS011;11116;51.554;7.812;2022-10-16T09:46:21;8.55;;;1.60;;
21903;SDS011;11116;51.554;7.812;2022-10-16T09:48:53;0.90;;;0.70;;
21903;SDS011;11116;51.554;7.812;2022-10-16T09:51:23;1.63;;;0.70;;
21903;SDS011;11116;51.554;7.812;2022-10-16T09:53:54;0.98;;;0.70;;
21903;SDS011;11116;51.554;7.812;2022-10-16T09:56:22;4.82;;;0.90;;
21903;SDS011;11116;51.554;7.812;2022-10-16T09:58:50;1.27;;;0.60;;
21903;SDS011;11116;51.554;7.812;2022-10-16T10:01:18;1.50;;;0.75;;
21903;SDS011;11116;51.554;7.812;2022-10-16T10:03:46;1.92;;;0.85;;
21903;SDS011;11116;51.554;7.812;2022-10-16T10:06:17;2.95;;;0.80;;
21903;SDS011;11116;51.554;7.812;2022-10-16T10:08:55;1.20;;;0.70;;
21903;SDS011;11116;51.554;7.812;2022-10-16T10:11:47;1.42;;;0.70;;
21903;SDS011;11116;51.554;7.812;2022-10-16T10:14:23;0.63;;;0.47;;
21903;SDS011;11116;51.554;7.812;2022-10-16T10:17:01;3.28;;;0.73;;
21903;SDS011;11116;51.554;7.812;2022-10-16T10:19:40;0.57;;;0.43;;
21903;SDS011;11116;51.554;7.812;2022-10-16T10:22:19;1.42;;;0.70;;
21903;SDS011;11116;51.554;7.812;2022-10-16T10:27:45;2.70;;;0.93;;
21903;SDS011;11116;51.554;7.812;2022-10-16T10:30:21;2.55;;;0.80;;
21903;SDS011;11116;51.554;7.812;2022-10-16T10:32:54;2.28;;;1.13;;
21903;SDS011;11116;51.554;7.812;2022-10-16T10:35:38;2.97;;;0.60;;
21903;SDS011;11116;51.554;7.812;2022-10-16T10:38:16;3.17;;;0.55;;
21903;SDS011;11116;51.554;7.812;2022-10-16T10:40:56;1.25;;;0.50;;
21903;SDS011;11116;51.554;7.812;2022-10-16T10:43:41;2.75;;;0.80;;
21903;SDS011;11116;51.554;7.812;2022-10-16T10:46:25;0.47;;;0.47;;
21903;SDS011;11116;51.554;7.812;2022-10-16T10:49:02;1.52;;;0.73;;
21903;SDS011;11116;51.554;7.812;2022-10-16T10:51:39;2.72;;;0.52;;
21903;SDS011;11116;51.554;7.812;2022-10-16T10:54:17;3.05;;;0.93;;
21903;SDS011;11116;51.554;7.812;2022-10-16T10:56:55;1.65;;;0.80;;
21903;SDS011;11116;51.554;7.812;2022-10-16T11:07:54;1.50;;;0.50;;
21903;SDS011;11116;51.554;7.812;2022-10-16T11:10:27;0.55;;;0.55;;
21903;SDS011;11116;51.554;7.812;2022-10-16T11:12:58;2.95;;;0.57;;
21903;SDS011;11116;51.554;7.812;2022-10-16T11:15:30;1.85;;;1.15;;
21903;SDS011;11116;51.554;7.812;2022-10-16T11:18:00;4.47;;;0.90;;
21903;SDS011;11116;51.554;7.812;2022-10-16T11:20:33;1.83;;;0.50;;
21903;SDS011;11116;51.554;7.812;2022-10-16T11:23:05;1.48;;;0.73;;
21903;SDS011;11116;51.554;7.812;2022-10-16T11:25:40;2.97;;;0.60;;
21903;SDS011;11116;51.554;7.812;2022-10-16T11:28:11;2.13;;;0.70;;
21903;SDS011;11116;51.554;7.812;2022-10-16T11:30:41;1.70;;;0.73;;
21903;SDS011;11116;51.554;7.812;2022-10-16T11:33:24;1.00;;;0.55;;
21903;SDS011;11116;51.554;7.812;2022-10-16T11:36:05;1.95;;;0.60;;
21903;SDS011;11116;51.554;7.812;2022-10-16T11:38:39;1.50;;;0.55;;
21903;SDS011;11116;51.554;7.812;2022-10-16T11:41:13;2.15;;;0.65;;
21903;SDS011;11116;51.554;7.812;2022-10-16T11:43:48;0.73;;;0.45;;
21903;SDS011;11116;51.554;7.812;2022-10-16T11:46:24;1.10;;;0.60;;
21903;SDS011;11116;51.554;7.812;2022-10-16T11:48:54;0.63;;;0.63;;
21903;SDS011;11116;51.554;7.812;2022-10-16T11:51:29;3.75;;;0.80;;
21903;SDS011;11116;51.554;7.812;2022-10-16T11:54:02;4.05;;;0.90;;
21903;SDS011;11116;51.554;7.812;2022-10-16T11:56:37;3.35;;;0.70;;
21903;SDS011;11116;51.554;7.812;2022-10-16T11:59:08;1.92;;;0.68;;
21903;SDS011;11116;51.554;7.812;2022-10-16T12:01:45;3.83;;;0.82;;
21903;SDS011;11116;51.554;7.812;2022-10-16T12:04:19;2.20;;;0.70;;
21903;SDS011;11116;51.554;7.812;2022-10-16T12:06:53;1.30;;;0.50;;
21903;SDS011;11116;51.554;7.812;2022-10-16T12:09:25;0.80;;;0.80;;
21903;SDS011;11116;51.554;7.812;2022-10-16T12:11:55;1.52;;;0.70;;
21903;SDS011;11116;51.554;7.812;2022-10-16T12:14:33;4.25;;;0.60;;
21903;SDS011;11116;51.554;7.812;2022-10-16T12:17:02;4.32;;;0.60;;
21903;SDS011;11116;51.554;7.812;2022-10-16T12:19:32;1.65;;;0.40;;
21903;SDS011;11116;51.554;7.812;2022-10-16T12:21:59;1.98;;;0.60;;
21903;SDS011;11116;51.554;7.812;2022-10-16T12:24:33;1.95;;;0.50;;
21903;SDS011;11116;51.554;7.812;2022-10-16T12:27:03;1.88;;;0.40;;
21903;SDS011;11116;51.554;7.812;2022-10-16T12:29:33;1.05;;;0.70;;
21903;SDS011;11116;51.554;7.812;2022-10-16T12:32:02;3.50;;;0.65;;
21903;SDS011;11116;51.554;7.812;2022-10-16T12:34:34;2.08;;;0.60;;
21903;SDS011;11116;51.554;7.812;2022-10-16T12:37:09;1.45;;;0.60;;
21903;SDS011;11116;51.554;7.812;2022-10-16T12:39:39;1.25;;;0.55;;
21903;SDS011;11116;51.554;7.812;2022-10-16T12:42:20;1.02;;;0.52;;
21903;SDS011;11116;51.554;7.812;2022-10-16T12:44:49;1.60;;;0.65;;
21903;SDS011;11116;51.554;7.812;2022-10-16T12:47:20;1.30;;;0.50;;
21903;SDS011;11116;51.554;7.812;2022-10-16T12:49:49;4.70;;;0.60;;
21903;SDS011;11116;51.554;7.812;2022-10-16T12:52:25;1.45;;;0.52;;
21903;SDS011;11116;51.554;7.812;2022-10-16T12:54:55;2.78;;;0.40;;
21903;SDS011;11116;51.554;7.812;2022-10-16T12:57:32;1.45;;;0.70;;
21903;SDS011;11116;51.554;7.812;2022-10-16T13:00:09;0.77;;;0.60;;
21903;SDS011;11116;51.554;7.812;2022-10-16T13:02:51;1.15;;;0.40;;
21903;SDS011;11116;51.554;7.812;2022-10-16T13:05:38;1.25;;;0.50;;
21903;SDS011;11116;51.554;7.812;2022-10-16T13:08:28;2.10;;;0.60;;
21903;SDS011;11116;51.554;7.812;2022-10-16T13:11:07;1.95;;;0.50;;
21903;SDS011;11116;51.554;7.812;2022-10-16T13:13:53;0.60;;;0.40;;
21903;SDS011;11116;51.554;7.812;2022-10-16T13:16:44;0.93;;;0.50;;
21903;SDS011;11116;51.554;7.812;2022-10-16T13:19:21;1.00;;;0.40;;
21903;SDS011;11116;51.554;7.812;2022-10-16T13:21:55;2.95;;;0.40;;
21903;SDS011;11116;51.554;7.812;2022-10-16T13:24:35;1.05;;;0.45;;
21903;SDS011;11116;51.554;7.812;2022-10-16T13:27:14;1.58;;;0.52;;
21903;SDS011;11116;51.554;7.812;2022-10-16T13:29:54;1.27;;;0.70;;
21903;SDS011;11116;51.554;7.812;2022-10-16T13:32:27;2.25;;;0.60;;
21903;SDS011;11116;51.554;7.812;2022-10-16T13:34:55;1.08;;;0.60;;
21903;SDS011;11116;51.554;7.812;2022-10-16T13:37:22;1.33;;;0.60;;
21903;SDS011;11116;51.554;7.812;2022-10-16T13:39:50;1.48;;;0.40;;
21903;SDS011;11116;51.554;7.812;2022-10-16T13:42:20;1.35;;;0.40;;
21903;SDS011;11116;51.554;7.812;2022-10-16T13:44:51;1.50;;;0.55;;
21903;SDS011;11116;51.554;7.812;2022-10-16T13:47:21;0.68;;;0.50;;
21903;SDS011;11116;51.554;7.812;2022-10-16T13:49:58;0.50;;;0.30;;
21903;SDS011;11116;51.554;7.812;2022-10-16T13:52:25;1.77;;;0.38;;
21903;SDS011;11116;51.554;7.812;2022-10-16T13:54:52;0.55;;;0.50;;
21903;SDS011;11116;51.554;7.812;2022-10-16T13:57:21;1.85;;;0.40;;
21903;SDS011;11116;51.554;7.812;2022-10-16T13:59:48;2.47;;;0.38;;
21903;SDS011;11116;51.554;7.812;2022-10-16T14:02:19;1.38;;;0.40;;
21903;SDS011;11116;51.554;7.812;2022-10-16T14:04:51;1.23;;;0.68;;
21903;SDS011;11116;51.554;7.812;2022-10-16T14:07:21;1.48;;;0.95;;
21903;SDS011;11116;51.554;7.812;2022-10-16T14:09:51;0.57;;;0.40;;
21903;SDS011;11116;51.554;7.812;2022-10-16T14:12:19;1.75;;;0.57;;
21903;SDS011;11116;51.554;7.812;2022-10-16T14:14:48;1.33;;;0.50;;
21903;SDS011;11116;51.554;7.812;2022-10-16T14:17:19;1.55;;;0.50;;
21903;SDS011;11116;51.554;7.812;2022-10-16T14:19:48;2.65;;;0.63;;
21903;SDS011;11116;51.554;7.812;2022-10-16T14:22:26;2.50;;;0.70;;
21903;SDS011;11116;51.554;7.812;2022-10-16T14:24:56;1.08;;;0.40;;
21903;SDS011;11116;51.554;7.812;2022-10-16T14:27:28;2.22;;;0.40;;
21903;SDS011;11116;51.554;7.812;2022-10-16T14:30:12;2.25;;;0.60;;
21903;SDS011;11116;51.554;7.812;2022-10-16T14:32:53;2.75;;;0.60;;
21903;SDS011;11116;51.554;7.812;2022-10-16T14:35:22;2.72;;;0.50;;
21903;SDS011;11116;51.554;7.812;2022-10-16T14:37:51;2.53;;;0.55;;
21903;SDS011;11116;51.554;7.812;2022-10-16T14:40:18;0.95;;;0.60;;
21903;SDS011;11116;51.554;7.812;2022-10-16T14:42:46;1.75;;;0.40;;
21903;SDS011;11116;51.554;7.812;2022-10-16T14:45:14;34.75;;;11.25;;
21903;SDS011;11116;51.554;7.812;2022-10-16T14:47:47;22.92;;;9.13;;
21903;SDS011;11116;51.554;7.812;2022-10-16T14:50:18;18.95;;;7.05;;
21903;SDS011;11116;51.554;7.812;2022-10-16T14:52:44;3.92;;;2.28;;
21903;SDS011;11116;51.554;7.812;2022-10-16T14:55:11;2.60;;;0.90;;
21903;SDS011;11116;51.554;7.812;2022-10-16T14:57:38;1.88;;;1.15;;
21903;SDS011;11116;51.554;7.812;2022-10-16T15:00:09;1.38;;;0.60;;
21903;SDS011;11116;51.554;7.812;2022-10-16T15:02:39;2.63;;;0.80;;
21903;SDS011;11116;51.554;7.812;2022-10-16T15:05:10;4.20;;;0.70;;
21903;SDS011;11116;51.554;7.812;2022-10-16T15:07:41;0.68;;;0.65;;
21903;SDS011;11116;51.554;7.812;2022-10-16T15:10:08;2.35;;;0.73;;
21903;SDS011;11116;51.554;7.812;2022-10-16T15:12:35;1.08;;;0.57;;
21903;SDS011;11116;51.554;7.812;2022-10-16T15:15:08;1.85;;;0.70;;
21903;SDS011;11116;51.554;7.812;2022-10-16T15:17:55;2.30;;;0.98;;